createdAt,value
2018-08-12T00:01:12.990Z,2.40
2018-08-12T00:03:41.677Z,3.27
2018-08-12T00:06:10.399Z,2.60
2018-08-12T00:08:40.115Z,2.50
2018-08-12T00:11:08.797Z,3.50
2018-08-12T00:13:37.506Z,4.20
2018-08-12T00:16:06.414Z,3.83
2018-08-12T00:18:35.170Z,4.63
2018-08-12T00:21:03.818Z,3.43
2018-08-12T00:23:32.470Z,3.23
2018-08-12T00:26:01.414Z,4.23
2018-08-12T00:28:30.071Z,3.20
2018-08-12T00:30:58.722Z,2.77
2018-08-12T00:33:27.377Z,4.30
2018-08-12T00:35:56.063Z,3.40
2018-08-12T00:38:24.723Z,2.83
2018-08-12T00:40:53.375Z,3.43
2018-08-12T00:50:21.043Z,3.20
2018-08-12T00:52:49.750Z,4.20
2018-08-12T00:55:18.704Z,3.90
2018-08-12T00:57:48.015Z,3.40
2018-08-12T01:00:19.061Z,4.00
2018-08-12T01:02:47.692Z,3.33
2018-08-12T01:05:17.481Z,3.63
2018-08-12T01:07:47.119Z,3.57
2018-08-12T01:10:16.417Z,3.67
2018-08-12T01:12:45.089Z,4.63
2018-08-12T01:15:15.353Z,3.60
2018-08-12T01:17:44.197Z,6.43
2018-08-12T01:20:15.729Z,4.87
2018-08-12T01:22:44.358Z,3.63
2018-08-12T01:25:13.237Z,5.50
2018-08-12T01:27:41.882Z,4.93
2018-08-12T01:30:12.879Z,4.80
2018-08-12T01:32:41.749Z,5.13
2018-08-12T01:35:11.414Z,4.30
2018-08-12T01:37:40.610Z,4.37
2018-08-12T01:40:11.269Z,4.47
2018-08-12T01:42:40.569Z,5.10
2018-08-12T01:45:10.813Z,4.53
2018-08-12T01:47:39.485Z,4.43
2018-08-12T01:50:08.929Z,4.60
2018-08-12T01:52:37.578Z,4.73
2018-08-12T01:55:06.382Z,4.40
2018-08-12T01:57:35.086Z,5.07
2018-08-12T02:00:04.800Z,6.20
2018-08-12T02:02:33.446Z,5.93
2018-08-12T02:05:02.103Z,7.43
2018-08-12T02:07:30.746Z,5.97
2018-08-12T02:09:59.490Z,6.20
2018-08-12T02:12:28.200Z,7.20
2018-08-12T02:14:56.818Z,7.17
2018-08-12T02:17:25.457Z,6.63
2018-08-12T02:19:54.117Z,7.33
2018-08-12T02:22:22.782Z,7.50
2018-08-12T02:24:51.432Z,6.90
2018-08-12T02:27:20.338Z,7.70
2018-08-12T02:29:49.001Z,7.90
2018-08-12T02:32:17.655Z,7.93
2018-08-12T02:34:46.317Z,7.57
2018-08-12T02:37:14.953Z,9.03
2018-08-12T02:39:43.610Z,7.50
2018-08-12T02:42:12.257Z,8.77
2018-08-12T02:44:40.977Z,8.30
2018-08-12T02:47:09.605Z,8.10
2018-08-12T02:49:38.247Z,10.43
2018-08-12T02:52:06.866Z,8.07
2018-08-12T02:54:35.485Z,8.43
2018-08-12T02:57:04.098Z,8.97
2018-08-12T02:59:32.722Z,9.47
2018-08-12T03:02:01.333Z,8.90
2018-08-12T03:04:29.958Z,13.50
2018-08-12T03:06:58.584Z,10.20
2018-08-12T03:09:27.236Z,10.50
2018-08-12T03:11:55.887Z,11.50
2018-08-12T03:14:24.611Z,23.60
2018-08-12T03:16:53.226Z,10.53
2018-08-12T03:19:21.915Z,10.87
2018-08-12T03:21:50.546Z,10.97
2018-08-12T03:24:19.182Z,11.00
2018-08-12T03:26:47.806Z,10.80
2018-08-12T03:29:16.441Z,10.80
2018-08-12T03:31:45.074Z,10.50
2018-08-12T03:34:13.709Z,10.80
2018-08-12T03:36:42.334Z,10.30
2018-08-12T03:39:12.026Z,10.30
2018-08-12T03:41:40.670Z,11.27
2018-08-12T03:44:09.313Z,11.13
2018-08-12T03:46:38.011Z,10.57
2018-08-12T03:49:06.672Z,10.73
2018-08-12T03:51:35.348Z,10.30
2018-08-12T03:54:04.006Z,10.00
2018-08-12T03:56:32.685Z,11.83
2018-08-12T03:59:01.345Z,10.73
2018-08-12T04:01:29.994Z,10.17
2018-08-12T04:03:58.648Z,10.27
2018-08-12T04:06:27.317Z,10.47
2018-08-12T04:08:55.965Z,9.50
2018-08-12T04:11:24.625Z,10.03
2018-08-12T04:13:53.279Z,9.73
2018-08-12T04:16:21.937Z,9.20
2018-08-12T04:18:50.594Z,8.97
2018-08-12T04:21:19.256Z,8.93
2018-08-12T04:23:47.891Z,9.00
2018-08-12T04:26:16.538Z,8.93
2018-08-12T04:28:45.204Z,11.00
2018-08-12T04:31:13.862Z,9.00
2018-08-12T04:33:42.501Z,9.70
2018-08-12T04:36:11.177Z,8.87
2018-08-12T04:38:39.806Z,9.27
2018-08-12T04:41:08.667Z,9.63
2018-08-12T04:43:37.358Z,9.23
2018-08-12T04:46:06.164Z,9.30
2018-08-12T04:48:34.726Z,8.80
2018-08-12T04:51:03.354Z,9.20
2018-08-12T04:53:31.965Z,9.50
2018-08-12T04:56:00.594Z,9.60
2018-08-12T04:58:29.221Z,8.80
2018-08-12T05:00:57.845Z,9.40
2018-08-12T05:03:26.478Z,9.60
2018-08-12T05:05:58.255Z,11.07
2018-08-12T05:08:28.681Z,9.43
2018-08-12T05:10:57.497Z,10.23
2018-08-12T05:13:26.117Z,9.67
2018-08-12T05:15:54.758Z,10.10
2018-08-12T05:18:23.394Z,10.10
2018-08-12T05:20:52.021Z,9.73
2018-08-12T05:23:20.645Z,9.30
2018-08-12T05:25:49.289Z,8.90
2018-08-12T05:28:17.908Z,8.90
2018-08-12T05:30:46.550Z,8.57
2018-08-12T05:33:15.177Z,8.73
2018-08-12T05:35:43.815Z,7.97
2018-08-12T05:38:12.437Z,7.97
2018-08-12T05:40:41.064Z,8.50
2018-08-12T05:43:09.703Z,8.90
2018-08-12T05:45:38.329Z,7.97
2018-08-12T05:48:06.974Z,9.20
2018-08-12T05:50:35.629Z,8.23
2018-08-12T05:53:04.249Z,8.57
2018-08-12T05:55:32.873Z,11.80
2018-08-12T05:58:01.511Z,8.57
2018-08-12T06:00:30.125Z,8.97
2018-08-12T06:02:58.762Z,8.50
2018-08-12T06:05:27.374Z,8.00
2018-08-12T06:07:56.005Z,7.80
2018-08-12T06:10:24.629Z,7.73
2018-08-12T06:12:53.265Z,7.80
2018-08-12T06:15:21.917Z,7.43
2018-08-12T06:17:50.534Z,6.60
2018-08-12T06:20:19.161Z,7.00
2018-08-12T06:22:47.801Z,7.10
2018-08-12T06:25:16.417Z,6.30
2018-08-12T06:27:45.069Z,5.30
2018-08-12T06:30:14.533Z,9.80
2018-08-12T06:32:43.241Z,4.90
2018-08-12T06:35:12.604Z,5.20
2018-08-12T06:37:41.221Z,6.77
2018-08-12T06:40:11.638Z,4.03
2018-08-12T06:42:41.866Z,5.60
2018-08-12T06:45:12.578Z,4.43
2018-08-12T06:47:42.209Z,4.10
2018-08-12T06:50:11.098Z,4.17
2018-08-12T06:52:40.213Z,5.17
2018-08-12T06:55:10.385Z,3.43
2018-08-12T06:57:39.523Z,3.67
2018-08-12T07:00:10.266Z,3.53
2018-08-12T07:02:38.891Z,3.63
2018-08-12T07:05:08.558Z,2.77
2018-08-12T07:07:37.514Z,2.63
2018-08-12T07:10:07.929Z,2.63
2018-08-12T07:12:36.550Z,3.63
2018-08-12T07:15:07.334Z,4.27
2018-08-12T07:17:35.965Z,4.50
2018-08-12T07:20:06.406Z,2.73
2018-08-12T07:22:35.069Z,3.07
2018-08-12T07:25:03.713Z,4.50
2018-08-12T07:27:32.351Z,3.33
2018-08-12T07:30:00.966Z,3.47
2018-08-12T07:32:29.621Z,3.07
2018-08-12T07:34:58.370Z,4.90
2018-08-12T07:37:26.998Z,3.57
2018-08-12T07:39:55.624Z,4.60
2018-08-12T07:42:24.348Z,3.43
2018-08-12T07:44:52.973Z,3.40
2018-08-12T07:47:21.638Z,2.50
2018-08-12T07:49:50.287Z,3.07
2018-08-12T07:52:19.018Z,2.40
2018-08-12T07:54:47.946Z,3.63
2018-08-12T07:57:16.697Z,3.10
2018-08-12T07:59:45.354Z,1.57
2018-08-12T08:02:14.066Z,3.30
2018-08-12T08:04:42.725Z,3.60
2018-08-12T08:07:11.398Z,4.20
2018-08-12T08:09:40.054Z,3.10
2018-08-12T08:12:08.706Z,1.50
2018-08-12T08:14:37.351Z,2.90
2018-08-12T08:17:06.066Z,2.10
2018-08-12T08:19:34.797Z,2.33
2018-08-12T08:22:03.926Z,2.00
2018-08-12T08:24:33.194Z,2.30
2018-08-12T08:27:01.890Z,3.43
2018-08-12T08:29:31.051Z,2.70
2018-08-12T08:31:59.862Z,3.30
2018-08-12T08:34:28.394Z,5.10
2018-08-12T08:36:57.041Z,1.83
2018-08-12T08:39:25.705Z,2.60
2018-08-12T08:41:54.377Z,3.97
2018-08-12T08:44:23.041Z,2.17
2018-08-12T08:46:51.678Z,4.27
2018-08-12T08:49:20.314Z,3.40
2018-08-12T08:51:48.945Z,2.27
2018-08-12T08:54:18.209Z,1.97
2018-08-12T08:56:46.845Z,2.67
2018-08-12T08:59:15.581Z,2.43
2018-08-12T09:01:44.266Z,1.40
2018-08-12T09:04:12.985Z,1.80
2018-08-12T09:06:41.623Z,1.77
2018-08-12T09:09:13.299Z,2.93
2018-08-12T09:11:41.725Z,4.27
2018-08-12T09:14:10.945Z,2.40
2018-08-12T09:16:39.570Z,1.47
2018-08-12T09:19:08.198Z,2.00
2018-08-12T09:21:37.021Z,1.80
2018-08-12T09:24:07.090Z,1.43
2018-08-12T09:26:35.710Z,1.70
2018-08-12T09:29:04.518Z,2.20
2018-08-12T09:31:33.142Z,1.93
2018-08-12T09:34:01.790Z,2.40
2018-08-12T09:36:30.405Z,1.80
2018-08-12T09:38:59.025Z,1.97
2018-08-12T09:41:27.650Z,2.07
2018-08-12T09:43:56.281Z,2.00
2018-08-12T09:46:24.963Z,3.07
2018-08-12T09:48:53.659Z,2.27
2018-08-12T09:51:22.343Z,3.95
2018-08-12T09:53:50.969Z,1.10
2018-08-12T09:56:19.621Z,1.77
2018-08-12T09:58:48.480Z,3.20
2018-08-12T10:01:17.093Z,1.90
2018-08-12T10:03:45.781Z,2.33
2018-08-12T10:06:14.635Z,1.40
2018-08-12T10:08:43.278Z,1.67
2018-08-12T10:11:11.918Z,1.63
2018-08-12T10:13:40.571Z,2.07
2018-08-12T10:16:09.209Z,2.10
2018-08-12T10:18:37.885Z,2.70
2018-08-12T10:21:10.633Z,3.33
2018-08-12T10:23:39.291Z,1.42
2018-08-12T10:26:07.953Z,1.40
2018-08-12T10:28:36.609Z,2.67
2018-08-12T10:31:05.265Z,1.70
2018-08-12T10:33:33.929Z,1.93
2018-08-12T10:36:02.685Z,1.23
2018-08-12T10:38:31.342Z,1.87
2018-08-12T10:41:00.018Z,1.60
2018-08-12T10:43:28.661Z,4.40
2018-08-12T10:45:57.325Z,2.63
2018-08-12T10:48:26.713Z,2.17
2018-08-12T10:50:55.527Z,1.75
2018-08-12T10:53:24.075Z,2.20
2018-08-12T10:55:52.713Z,1.37
2018-08-12T10:58:21.911Z,2.47
2018-08-12T11:00:50.589Z,1.82
2018-08-12T11:03:20.061Z,2.20
2018-08-12T11:06:52.828Z,1.40
2018-08-12T11:09:21.478Z,1.80
2018-08-12T11:11:50.676Z,1.10
2018-08-12T11:14:19.301Z,1.20
2018-08-12T11:16:47.938Z,1.30
2018-08-12T11:19:16.570Z,1.22
2018-08-12T11:21:45.184Z,1.87
2018-08-12T11:24:13.816Z,1.47
2018-08-12T11:26:42.461Z,1.60
2018-08-12T11:29:11.102Z,1.40
2018-08-12T11:31:39.781Z,1.47
2018-08-12T11:34:08.913Z,1.52
2018-08-12T11:36:37.682Z,1.85
2018-08-12T11:39:08.758Z,1.92
2018-08-12T11:41:37.399Z,2.02
2018-08-12T11:44:06.053Z,1.07
2018-08-12T11:46:34.726Z,1.42
2018-08-12T11:49:03.393Z,1.72
2018-08-12T11:51:32.045Z,2.62
2018-08-12T11:54:00.704Z,1.85
2018-08-12T11:56:29.370Z,1.17
2018-08-12T11:58:58.022Z,1.50
2018-08-12T12:01:26.662Z,2.33
2018-08-12T12:03:55.281Z,1.30
2018-08-12T12:06:23.933Z,1.30
2018-08-12T12:08:52.548Z,1.42
2018-08-12T12:11:21.196Z,1.55
2018-08-12T12:13:49.813Z,1.42
2018-08-12T12:16:18.450Z,1.17
2018-08-12T12:18:47.553Z,1.50
2018-08-12T12:21:16.178Z,1.50
2018-08-12T12:23:44.813Z,1.52
2018-08-12T12:26:13.437Z,2.27
2018-08-12T12:28:42.061Z,1.40
2018-08-12T12:31:10.702Z,1.30
2018-08-12T12:33:39.318Z,1.02
2018-08-12T12:36:08.011Z,1.90
2018-08-12T12:38:36.636Z,3.80
2018-08-12T12:41:05.269Z,1.50
2018-08-12T12:43:33.890Z,1.65
2018-08-12T12:46:02.561Z,1.20
2018-08-12T12:48:31.221Z,1.20
2018-08-12T12:50:59.871Z,2.70
2018-08-12T12:53:28.501Z,1.80
2018-08-12T12:55:57.129Z,1.37
2018-08-12T12:58:25.803Z,2.90
2018-08-12T13:00:54.403Z,1.57
2018-08-12T13:03:23.041Z,2.40
2018-08-12T13:05:51.678Z,1.47
2018-08-12T13:08:20.413Z,1.80
2018-08-12T13:10:49.046Z,1.42
2018-08-12T13:13:17.665Z,1.17
2018-08-12T13:15:46.306Z,2.12
2018-08-12T13:18:14.938Z,1.30
2018-08-12T13:20:43.570Z,1.62
2018-08-12T13:23:12.218Z,1.25
2018-08-12T13:25:40.846Z,1.00
2018-08-12T13:28:09.573Z,2.83
2018-08-12T13:30:38.242Z,1.98
2018-08-12T13:33:06.985Z,1.50
2018-08-12T13:35:35.657Z,1.40
2018-08-12T13:38:04.346Z,2.72
2018-08-12T13:40:33.069Z,1.55
2018-08-12T13:43:01.701Z,1.42
2018-08-12T13:45:30.315Z,1.47
2018-08-12T13:47:59.074Z,1.20
2018-08-12T13:50:27.701Z,1.10
2018-08-12T13:52:56.373Z,1.45
2018-08-12T13:55:25.016Z,1.12
2018-08-12T13:57:53.965Z,1.22
2018-08-12T14:00:24.098Z,1.10
2018-08-12T14:02:52.737Z,2.47
2018-08-12T14:05:21.708Z,2.35
2018-08-12T14:07:50.927Z,1.90
2018-08-12T14:10:19.586Z,2.05
2018-08-12T14:12:48.217Z,2.72
2018-08-12T14:15:18.153Z,1.25
2018-08-12T14:17:47.669Z,2.00
2018-08-12T14:20:17.697Z,1.30
2018-08-12T14:22:46.448Z,1.17
2018-08-12T14:25:15.078Z,2.45
2018-08-12T14:27:44.314Z,1.75
2018-08-12T14:30:15.326Z,2.70
2018-08-12T14:32:44.696Z,4.05
2018-08-12T14:35:13.305Z,2.22
2018-08-12T14:37:42.167Z,1.17
2018-08-12T14:40:11.782Z,1.22
2018-08-12T14:42:40.409Z,2.42
2018-08-12T14:45:10.778Z,1.32
2018-08-12T14:47:39.942Z,1.37
2018-08-12T14:50:10.886Z,2.15
2018-08-12T14:52:39.561Z,2.10
2018-08-12T14:55:09.205Z,2.15
2018-08-12T14:57:38.044Z,1.12
2018-08-12T15:00:08.518Z,1.90
2018-08-12T15:02:37.185Z,2.30
2018-08-12T15:05:05.958Z,1.40
2018-08-12T15:07:34.678Z,1.80
2018-08-12T15:10:03.545Z,1.40
2018-08-12T15:12:32.206Z,1.30
2018-08-12T15:15:00.981Z,1.67
2018-08-12T15:17:29.741Z,2.00
2018-08-12T15:19:58.441Z,1.77
2018-08-12T15:22:27.196Z,1.45
2018-08-12T15:24:56.057Z,2.47
2018-08-12T15:27:24.742Z,1.42
2018-08-12T15:29:53.396Z,1.30
2018-08-12T15:32:22.081Z,1.62
2018-08-12T15:34:50.965Z,1.50
2018-08-12T15:37:19.701Z,2.20
2018-08-12T15:39:48.345Z,1.98
2018-08-12T15:42:17.061Z,1.52
2018-08-12T15:44:45.685Z,1.57
2018-08-12T15:47:16.935Z,2.37
2018-08-12T15:49:45.594Z,2.15
2018-08-12T15:52:14.157Z,1.67
2018-08-12T15:54:42.789Z,1.82
2018-08-12T15:57:11.422Z,1.60
2018-08-12T15:59:40.050Z,2.00
2018-08-12T16:02:08.675Z,1.85
2018-08-12T16:04:37.298Z,1.75
2018-08-12T16:07:09.073Z,2.60
2018-08-12T16:09:37.843Z,2.93
2018-08-12T16:12:07.801Z,2.27
2018-08-12T16:14:36.617Z,2.07
2018-08-12T16:17:05.728Z,2.93
2018-08-12T16:19:34.372Z,1.50
2018-08-12T16:22:02.981Z,1.80
2018-08-12T16:24:31.618Z,2.70
2018-08-12T16:27:00.245Z,2.33
2018-08-12T16:29:28.878Z,1.70
2018-08-12T16:31:57.493Z,1.73
2018-08-12T16:34:26.126Z,1.93
2018-08-12T16:36:54.745Z,1.60
2018-08-12T16:39:23.394Z,1.70
2018-08-12T16:41:52.102Z,2.97
2018-08-12T16:44:20.722Z,1.97
2018-08-12T16:46:49.433Z,2.20
2018-08-12T16:49:18.093Z,2.00
2018-08-12T16:51:46.721Z,2.73
2018-08-12T16:54:15.393Z,2.40
2018-08-12T16:56:44.157Z,2.23
2018-08-12T16:59:12.842Z,2.00
2018-08-12T17:01:41.570Z,2.70
2018-08-12T17:04:10.379Z,1.77
2018-08-12T17:06:39.050Z,4.57
2018-08-12T17:09:09.302Z,1.90
2018-08-12T17:11:37.983Z,2.30
2018-08-12T17:14:07.091Z,2.90
2018-08-12T17:16:35.745Z,5.20
2018-08-12T17:19:04.446Z,2.50
2018-08-12T17:21:33.170Z,3.83
2018-08-12T17:24:01.849Z,2.70
2018-08-12T17:26:30.514Z,2.80
2018-08-12T17:30:28.518Z,1.97
2018-08-12T17:32:57.202Z,2.33
2018-08-12T17:35:25.872Z,2.03
2018-08-12T17:37:54.561Z,2.27
2018-08-12T17:40:23.281Z,2.13
2018-08-12T17:42:51.994Z,1.90
2018-08-12T17:45:20.631Z,4.23
2018-08-12T17:47:49.353Z,2.13
2018-08-12T17:50:18.458Z,1.80
2018-08-12T17:52:47.111Z,1.77
2018-08-12T17:55:15.797Z,2.73
2018-08-12T17:57:44.424Z,2.87
2018-08-12T18:00:14.889Z,2.73
2018-08-12T18:02:43.524Z,3.50
2018-08-12T18:05:12.174Z,1.90
2018-08-12T18:07:41.488Z,2.20
2018-08-12T18:10:10.129Z,2.20
2018-08-12T18:12:38.748Z,2.80
2018-08-12T18:15:08.626Z,3.00
2018-08-12T18:17:37.285Z,4.37
2018-08-12T18:20:05.937Z,3.10
2018-08-12T18:22:34.581Z,2.40
2018-08-12T18:25:03.309Z,3.13
2018-08-12T18:27:31.973Z,5.27
2018-08-12T18:30:00.631Z,2.67
2018-08-12T18:32:29.287Z,2.80
2018-08-12T18:34:57.982Z,3.10
2018-08-12T18:37:26.621Z,2.20
2018-08-12T18:39:55.318Z,2.33
2018-08-12T18:42:23.998Z,4.80
2018-08-12T18:44:52.657Z,2.63
2018-08-12T18:47:21.305Z,2.10
2018-08-12T18:49:49.975Z,4.97
2018-08-12T18:52:18.633Z,3.70
2018-08-12T18:54:47.310Z,3.00
2018-08-12T18:57:16.025Z,3.23
2018-08-12T18:59:44.689Z,3.83
2018-08-12T19:02:13.366Z,3.30
2018-08-12T19:04:42.058Z,2.67
2018-08-12T19:07:10.718Z,4.40
2018-08-12T19:09:39.411Z,3.83
2018-08-12T19:12:08.965Z,3.60
2018-08-12T19:14:37.626Z,3.40
2018-08-12T19:17:06.281Z,3.07
2018-08-12T19:19:34.938Z,3.07
2018-08-12T19:22:03.601Z,3.70
2018-08-12T19:24:32.249Z,6.63
2018-08-12T19:27:00.922Z,4.30
2018-08-12T19:29:29.562Z,3.03
2018-08-12T19:31:58.217Z,3.00
2018-08-12T19:34:26.865Z,3.00
2018-08-12T19:36:55.516Z,5.93
2018-08-12T19:39:24.225Z,4.37
2018-08-12T19:41:52.954Z,5.13
2018-08-12T19:44:21.610Z,4.80
2018-08-12T19:46:50.365Z,5.23
2018-08-12T19:49:18.937Z,6.00
2018-08-12T19:51:48.166Z,5.17
2018-08-12T19:54:16.823Z,4.70
2018-08-12T19:56:45.485Z,5.07
2018-08-12T19:59:14.141Z,6.20
2018-08-12T20:01:42.817Z,10.40
2018-08-12T20:04:11.501Z,21.20
2018-08-12T20:06:40.170Z,23.23
2018-08-12T20:09:09.930Z,12.63
2018-08-12T20:11:38.734Z,10.93
2018-08-12T20:14:07.937Z,14.70
2018-08-12T20:16:36.614Z,12.23
2018-08-12T20:19:05.335Z,7.50
2018-08-12T20:21:34.073Z,6.77
2018-08-12T20:24:03.811Z,5.10
2018-08-12T20:26:32.611Z,6.90
2018-08-12T20:29:01.882Z,4.60
2018-08-12T20:31:30.553Z,4.20
2018-08-12T20:33:59.223Z,3.87
2018-08-12T20:36:27.885Z,6.67
2018-08-12T20:38:56.546Z,5.90
2018-08-12T20:41:28.049Z,5.70
2018-08-12T20:43:57.541Z,5.60
2018-08-12T20:46:26.510Z,5.47
2018-08-12T20:48:55.157Z,4.30
2018-08-12T20:51:26.513Z,5.47
2018-08-12T20:53:55.529Z,4.23
2018-08-12T20:56:24.797Z,4.20
2018-08-12T20:58:54.942Z,3.80
2018-08-12T21:01:23.595Z,4.80
2018-08-12T21:03:52.249Z,4.20
2018-08-12T21:06:20.902Z,3.80
2018-08-12T21:08:49.559Z,5.50
2018-08-12T21:11:18.201Z,4.83
2018-08-12T21:13:46.851Z,5.17
2018-08-12T21:16:15.500Z,3.47
2018-08-12T21:18:44.159Z,4.53
2018-08-12T21:21:12.809Z,3.20
2018-08-12T21:23:41.449Z,3.20
2018-08-12T21:26:10.104Z,6.60
2018-08-12T21:28:38.700Z,3.23
2018-08-12T21:31:07.318Z,3.13
2018-08-12T21:33:36.027Z,3.00
2018-08-12T21:36:05.114Z,3.13
2018-08-12T21:38:33.707Z,3.13
2018-08-12T21:41:02.329Z,3.30
2018-08-12T21:43:30.962Z,2.93
2018-08-12T21:45:59.586Z,3.30
2018-08-12T21:48:28.217Z,3.53
2018-08-12T21:50:56.893Z,3.50
2018-08-12T21:53:25.535Z,3.83
2018-08-12T21:55:54.158Z,2.70
2018-08-12T21:58:22.805Z,3.60
2018-08-12T22:00:52.992Z,4.70
2018-08-12T22:03:21.686Z,2.87
2018-08-12T22:05:50.343Z,5.03
2018-08-12T22:08:19.073Z,2.53
2018-08-12T22:10:47.791Z,4.93
2018-08-12T22:13:16.430Z,4.67
2018-08-12T22:15:45.046Z,4.42
2018-08-12T22:18:13.678Z,4.53
2018-08-12T22:20:42.334Z,4.90
2018-08-12T22:23:10.979Z,3.80
2018-08-12T22:25:39.609Z,3.43
2018-08-12T22:28:08.262Z,4.37
2018-08-12T22:30:36.973Z,5.77
2018-08-12T22:33:05.633Z,3.13
2018-08-12T22:35:34.265Z,4.70
2018-08-12T22:38:02.894Z,3.20
2018-08-12T22:40:31.794Z,4.43
2018-08-12T22:43:00.425Z,3.13
2018-08-12T22:45:29.051Z,3.10
2018-08-12T22:47:57.678Z,3.20
2018-08-12T22:50:26.306Z,2.97
2018-08-12T22:52:54.930Z,3.20
2018-08-12T22:55:23.662Z,4.90
2018-08-12T22:57:52.278Z,3.63
2018-08-12T23:00:20.910Z,3.53
2018-08-12T23:02:49.622Z,3.07
2018-08-12T23:05:18.268Z,5.10
2018-08-12T23:07:46.952Z,3.00
2018-08-12T23:10:15.594Z,2.90
2018-08-12T23:12:44.221Z,3.30
2018-08-12T23:15:24.170Z,3.30
2018-08-12T23:17:52.817Z,4.10
2018-08-12T23:20:21.436Z,4.90
2018-08-12T23:22:50.074Z,3.13
2018-08-12T23:25:18.731Z,5.53
2018-08-12T23:27:47.378Z,2.87
2018-08-12T23:30:16.042Z,3.40
2018-08-12T23:32:44.692Z,4.03
2018-08-12T23:35:13.530Z,2.87
2018-08-12T23:37:42.177Z,2.97
2018-08-12T23:40:10.843Z,3.47
2018-08-12T23:42:39.493Z,3.80
2018-08-12T23:45:08.170Z,3.00
2018-08-12T23:47:36.805Z,6.93
2018-08-12T23:50:05.441Z,4.20
2018-08-12T23:52:34.058Z,3.83
2018-08-12T23:55:02.693Z,2.73
2018-08-12T23:57:31.323Z,2.90
2018-08-12T23:59:59.958Z,3.23
